KBFL/BFL METAR and TAF weather

Enter ICAO airport designator
Station Type Date Time Source
KBFL METAR 2021/08/02 02:54 UTC NOAA

KBFL 020254Z 35010KT 8SM SCT110 38/08 A2991 RMK AO2 SLP120 T03780078 53003


Station Type Date Time Source
KBFL Decoded METAR 2021/08/02 02:54 UTC NOAA

BAKERSFIELD MEADOWS FIELD, CA, United States (KBFL) 35-26N 119-03W 151M
Aug 01, 2021 - 10:54 PM EDT / 2021.08.02 0254 UTC
Wind: from the N (350 degrees) at 12 MPH (10 KT):0
Visibility: 8 mile(s):0
Sky conditions: partly cloudy
Temperature: 100.0 F (37.8 C)
Heat index: 96.1 F (35.6 C):1
Dew Point: 46.0 F (7.8 C)
Relative Humidity: 16%
Pressure (altimeter): 29.91 in. Hg (1012 hPa)
Pressure tendency: 0.01 inches (0.3 hPa) higher than three hours ago
ob: KBFL 020254Z 35010KT 8SM SCT110 38/08 A2991 RMK AO2 SLP120 T03780078 53003
cycle: 3

Station Type Date Time Source
KBFL TAF 2021/08/01 18:22 UTC NOAA

TAF KBFL 011720Z 0118/0218 00000KT P6SM SKC
FM012000 31012KT P6SM FEW200
FM020600 VRB04KT P6SM FEW200

Example: see airport list